Terminal Aerodrome Forecast
Issued by NWS

Current Version | Previous Version | Text Only | Print | Product List | Glossary On
Versions: 1 2 3 4 5 6 7 8 9 10 11 12 13 14 15 16 17 18 19 20 21 22 23 24 25 26 27 28
000
FTUS45 KREV 291120
TAFCXP
TAF
KCXP 291120Z 2912/3012 27005KT P6SM SCT080 BKN180
     FM292000 27014G22KT P6SM SCT050 BKN110
     FM300400 32016G24KT 5SM SHRA SCT015 OVC025
     FM300800 33014KT P6SM VCSH BKN030 OVC040=

USA.gov is the U.S. government's official web portal to all federal, state and local government web resources and services.